Aviation Digital Data Service (ADDS)

Output produced by METARs form (1524 UTC 19 January 2019)
found at http://www.aviationweather.gov/metar/data/
 
METAR text: VEAT 191400Z 00000KT 2000 BR NSC 16/15 Q1015 NOSIG
Conditions at: VEAT (AGARTALA , IN) observed 1400 UTC 19 January 2019
Temperature: 16.0°C (61°F)
Dewpoint: 15.0°C (59°F) [RH = 94%]
Pressure (altimeter): 29.97 inches Hg (1015.0 mb)
Winds: calm
Visibility: 1.24 miles (2.00 km)
Ceiling: at least 12,000 feet AGL
Clouds: sky clear below 12,000 feet AGL
Weather: BR  (mist)

METAR text: VEAT 191330Z 00000KT 2000 BR NSC 17/15 Q1014 NOSIG
Conditions at: VEAT (AGARTALA , IN) observed 1330 UTC 19 January 2019
Temperature: 17.0°C (63°F)
Dewpoint: 15.0°C (59°F) [RH = 88%]
Pressure (altimeter): 29.94 inches Hg (1014.0 mb)
Winds: calm
Visibility: 1.24 miles (2.00 km)
Ceiling: at least 12,000 feet AGL
Clouds: sky clear below 12,000 feet AGL
Weather: BR  (mist)

METAR text: VEAT 191300Z 00000KT 2000 BR NSC 18/16 Q1014 NOSIG
Conditions at: VEAT (AGARTALA , IN) observed 1300 UTC 19 January 2019
Temperature: 18.0°C (64°F)
Dewpoint: 16.0°C (61°F) [RH = 88%]
Pressure (altimeter): 29.94 inches Hg (1014.0 mb)
Winds: calm
Visibility: 1.24 miles (2.00 km)
Ceiling: at least 12,000 feet AGL
Clouds: sky clear below 12,000 feet AGL
Weather: BR  (mist)

METAR text: VEAT 191230Z 00000KT 1800 BR NSC 19/16 Q1014 NOSIG
Conditions at: VEAT (AGARTALA , IN) observed 1230 UTC 19 January 2019
Temperature: 19.0°C (66°F)
Dewpoint: 16.0°C (61°F) [RH = 83%]
Pressure (altimeter): 29.94 inches Hg (1014.0 mb)
Winds: calm
Visibility: 1.12 miles (1.80 km)
Ceiling: at least 12,000 feet AGL
Clouds: sky clear below 12,000 feet AGL
Weather: BR  (mist)

METAR text: VEAT 191200Z 00000KT 1800 BR NSC 20/17 Q1014 NOSIG
Conditions at: VEAT (AGARTALA , IN) observed 1200 UTC 19 January 2019
Temperature: 20.0°C (68°F)
Dewpoint: 17.0°C (63°F) [RH = 83%]
Pressure (altimeter): 29.94 inches Hg (1014.0 mb)
Winds: calm
Visibility: 1.12 miles (1.80 km)
Ceiling: at least 12,000 feet AGL
Clouds: sky clear below 12,000 feet AGL
Weather: BR  (mist)

METAR text: VEAT 191130Z 00000KT 1800 HZ NSC 22/18 Q1013 NOSIG
Conditions at: VEAT (AGARTALA , IN) observed 1130 UTC 19 January 2019
Temperature: 22.0°C (72°F)
Dewpoint: 18.0°C (64°F) [RH = 78%]
Pressure (altimeter): 29.91 inches Hg (1013.0 mb)
Winds: calm
Visibility: 1.12 miles (1.80 km)
Ceiling: at least 12,000 feet AGL
Clouds: sky clear below 12,000 feet AGL
Weather: HZ  (haze)

METAR text: VEAT 191100Z 00000KT 2000 HZ NSC 23/17 Q1013 NOSIG
Conditions at: VEAT (AGARTALA , IN) observed 1100 UTC 19 January 2019
Temperature: 23.0°C (73°F)
Dewpoint: 17.0°C (63°F) [RH = 69%]
Pressure (altimeter): 29.91 inches Hg (1013.0 mb)
Winds: calm
Visibility: 1.24 miles (2.00 km)
Ceiling: at least 12,000 feet AGL
Clouds: sky clear below 12,000 feet AGL
Weather: HZ  (haze)

METAR text: VEAT 191030Z 00000KT 2000 HZ NSC 24/15 Q1013 NOSIG
Conditions at: VEAT (AGARTALA , IN) observed 1030 UTC 19 January 2019
Temperature: 24.0°C (75°F)
Dewpoint: 15.0°C (59°F) [RH = 57%]
Pressure (altimeter): 29.91 inches Hg (1013.0 mb)
Winds: calm
Visibility: 1.24 miles (2.00 km)
Ceiling: at least 12,000 feet AGL
Clouds: sky clear below 12,000 feet AGL
Weather: HZ  (haze)

METAR text: VEAT 191000Z 00000KT 2000 HZ NSC 24/15 Q1013 NOSIG
Conditions at: VEAT (AGARTALA , IN) observed 1000 UTC 19 January 2019
Temperature: 24.0°C (75°F)
Dewpoint: 15.0°C (59°F) [RH = 57%]
Pressure (altimeter): 29.91 inches Hg (1013.0 mb)
Winds: calm
Visibility: 1.24 miles (2.00 km)
Ceiling: at least 12,000 feet AGL
Clouds: sky clear below 12,000 feet AGL
Weather: HZ  (haze)

METAR text: VEAT 190930Z 00000KT 2000 HZ NSC 25/15 Q1013 NOSIG
Conditions at: VEAT (AGARTALA , IN) observed 0930 UTC 19 January 2019
Temperature: 25.0°C (77°F)
Dewpoint: 15.0°C (59°F) [RH = 54%]
Pressure (altimeter): 29.91 inches Hg (1013.0 mb)
Winds: calm
Visibility: 1.24 miles (2.00 km)
Ceiling: at least 12,000 feet AGL
Clouds: sky clear below 12,000 feet AGL
Weather: HZ  (haze)

METAR text: VEAT 190900Z 00000KT 2000 HZ NSC 25/15 Q1014 NOSIG
Conditions at: VEAT (AGARTALA , IN) observed 0900 UTC 19 January 2019
Temperature: 25.0°C (77°F)
Dewpoint: 15.0°C (59°F) [RH = 54%]
Pressure (altimeter): 29.94 inches Hg (1014.0 mb)
Winds: calm
Visibility: 1.24 miles (2.00 km)
Ceiling: at least 12,000 feet AGL
Clouds: sky clear below 12,000 feet AGL
Weather: HZ  (haze)

METAR text: VEAT 190830Z 00000KT 2000 HZ NSC 25/15 Q1014 NOSIG
Conditions at: VEAT (AGARTALA , IN) observed 0830 UTC 19 January 2019
Temperature: 25.0°C (77°F)
Dewpoint: 15.0°C (59°F) [RH = 54%]
Pressure (altimeter): 29.94 inches Hg (1014.0 mb)
Winds: calm
Visibility: 1.24 miles (2.00 km)
Ceiling: at least 12,000 feet AGL
Clouds: sky clear below 12,000 feet AGL
Weather: HZ  (haze)

METAR text: VEAT 190800Z 00000KT 2000 HZ NSC 25/15 Q1014 NOSIG
Conditions at: VEAT (AGARTALA , IN) observed 0800 UTC 19 January 2019
Temperature: 25.0°C (77°F)
Dewpoint: 15.0°C (59°F) [RH = 54%]
Pressure (altimeter): 29.94 inches Hg (1014.0 mb)
Winds: calm
Visibility: 1.24 miles (2.00 km)
Ceiling: at least 12,000 feet AGL
Clouds: sky clear below 12,000 feet AGL
Weather: HZ  (haze)

METAR text: VEAT 190730Z 00000KT 2000 HZ NSC 24/15 Q1014 NOSIG
Conditions at: VEAT (AGARTALA , IN) observed 0730 UTC 19 January 2019
Temperature: 24.0°C (75°F)
Dewpoint: 15.0°C (59°F) [RH = 57%]
Pressure (altimeter): 29.94 inches Hg (1014.0 mb)
Winds: calm
Visibility: 1.24 miles (2.00 km)
Ceiling: at least 12,000 feet AGL
Clouds: sky clear below 12,000 feet AGL
Weather: HZ  (haze)

METAR text: VEAT 190700Z 00000KT 1800 HZ NSC 24/15 Q1015 NOSIG
Conditions at: VEAT (AGARTALA , IN) observed 0700 UTC 19 January 2019
Temperature: 24.0°C (75°F)
Dewpoint: 15.0°C (59°F) [RH = 57%]
Pressure (altimeter): 29.97 inches Hg (1015.0 mb)
Winds: calm
Visibility: 1.12 miles (1.80 km)
Ceiling: at least 12,000 feet AGL
Clouds: sky clear below 12,000 feet AGL
Weather: HZ  (haze)

METAR text: VEAT 190630Z 00000KT 1800 HZ NSC 24/16 Q1016 NOSIG
Conditions at: VEAT (AGARTALA , IN) observed 0630 UTC 19 January 2019
Temperature: 24.0°C (75°F)
Dewpoint: 16.0°C (61°F) [RH = 61%]
Pressure (altimeter): 30.00 inches Hg (1016.0 mb)
Winds: calm
Visibility: 1.12 miles (1.80 km)
Ceiling: at least 12,000 feet AGL
Clouds: sky clear below 12,000 feet AGL
Weather: HZ  (haze)

METAR text: VEAT 190600Z 00000KT 1800 HZ NSC 24/16 Q1016 NOSIG
Conditions at: VEAT (AGARTALA , IN) observed 0600 UTC 19 January 2019
Temperature: 24.0°C (75°F)
Dewpoint: 16.0°C (61°F) [RH = 61%]
Pressure (altimeter): 30.00 inches Hg (1016.0 mb)
Winds: calm
Visibility: 1.12 miles (1.80 km)
Ceiling: at least 12,000 feet AGL
Clouds: sky clear below 12,000 feet AGL
Weather: HZ  (haze)

METAR text: VEAT 190530Z 00000KT 1500 HZ NSC 23/16 Q1017 NOSIG
Conditions at: VEAT (AGARTALA , IN) observed 0530 UTC 19 January 2019
Temperature: 23.0°C (73°F)
Dewpoint: 16.0°C (61°F) [RH = 65%]
Pressure (altimeter): 30.03 inches Hg (1017.0 mb)
Winds: calm
Visibility: 0.93 miles (1.50 km)
Ceiling: at least 12,000 feet AGL
Clouds: sky clear below 12,000 feet AGL
Weather: HZ  (haze)

METAR text: VEAT 190500Z 00000KT 1200 BR NSC 22/17 Q1017 BECMG 1500 HZ
Conditions at: VEAT (AGARTALA , IN) observed 0500 UTC 19 January 2019
Temperature: 22.0°C (72°F)
Dewpoint: 17.0°C (63°F) [RH = 73%]
Pressure (altimeter): 30.03 inches Hg (1017.0 mb)
Winds: calm
Visibility: 0.75 miles (1.21 km)
Ceiling: at least 12,000 feet AGL
Clouds: sky clear below 12,000 feet AGL
Weather: BR  (mist)

METAR text: VEAT 190430Z 00000KT 1200 BR NSC 20/16 Q1018 NOSIG
Conditions at: VEAT (AGARTALA , IN) observed 0430 UTC 19 January 2019
Temperature: 20.0°C (68°F)
Dewpoint: 16.0°C (61°F) [RH = 78%]
Pressure (altimeter): 30.06 inches Hg (1018.0 mb)
Winds: calm
Visibility: 0.75 miles (1.21 km)
Ceiling: at least 12,000 feet AGL
Clouds: sky clear below 12,000 feet AGL
Weather: BR  (mist)

METAR text: VEAT 190400Z 00000KT 1200 BR NSC 19/16 Q1018 NOSIG
Conditions at: VEAT (AGARTALA , IN) observed 0400 UTC 19 January 2019
Temperature: 19.0°C (66°F)
Dewpoint: 16.0°C (61°F) [RH = 83%]
Pressure (altimeter): 30.06 inches Hg (1018.0 mb)
Winds: calm
Visibility: 0.75 miles (1.21 km)
Ceiling: at least 12,000 feet AGL
Clouds: sky clear below 12,000 feet AGL
Weather: BR  (mist)

METAR text: VEAT 190330Z 00000KT 1200 BR NSC 18/15 Q1018 NOSIG
Conditions at: VEAT (AGARTALA , IN) observed 0330 UTC 19 January 2019
Temperature: 18.0°C (64°F)
Dewpoint: 15.0°C (59°F) [RH = 83%]
Pressure (altimeter): 30.06 inches Hg (1018.0 mb)
Winds: calm
Visibility: 0.75 miles (1.21 km)
Ceiling: at least 12,000 feet AGL
Clouds: sky clear below 12,000 feet AGL
Weather: BR  (mist)

METAR text: VEAT 190300Z 00000KT 1200 BR NSC 16/14 Q1017 NOSIG
Conditions at: VEAT (AGARTALA , IN) observed 0300 UTC 19 January 2019
Temperature: 16.0°C (61°F)
Dewpoint: 14.0°C (57°F) [RH = 88%]
Pressure (altimeter): 30.03 inches Hg (1017.0 mb)
Winds: calm
Visibility: 0.75 miles (1.21 km)
Ceiling: at least 12,000 feet AGL
Clouds: sky clear below 12,000 feet AGL
Weather: BR  (mist)

METAR text: VEAT 190200Z 00000KT 1200 BR NSC 14/12 Q1016 BECMG 1500 BR
Conditions at: VEAT (AGARTALA , IN) observed 0200 UTC 19 January 2019
Temperature: 14.0°C (57°F)
Dewpoint: 12.0°C (54°F) [RH = 88%]
Pressure (altimeter): 30.00 inches Hg (1016.0 mb)
Winds: calm
Visibility: 0.75 miles (1.21 km)
Ceiling: at least 12,000 feet AGL
Clouds: sky clear below 12,000 feet AGL
Weather: BR  (mist)

METAR text: VEAT 190100Z 00000KT 1000 MIFG NSC 12/11 Q1016 NOSIG
Conditions at: VEAT (AGARTALA , IN) observed 0100 UTC 19 January 2019
Temperature: 12.0°C (54°F)
Dewpoint: 11.0°C (52°F) [RH = 94%]
Pressure (altimeter): 30.00 inches Hg (1016.0 mb)
Winds: calm
Visibility: 0.62 miles (1.00 km)
Ceiling: at least 12,000 feet AGL
Clouds: sky clear below 12,000 feet AGL
Weather: MIFG  (shallow fog)

METAR text: VEAT 190000Z 00000KT 1500 BR NSC 12/11 Q1015 NOSIG
Conditions at: VEAT (AGARTALA , IN) observed 0000 UTC 19 January 2019
Temperature: 12.0°C (54°F)
Dewpoint: 11.0°C (52°F) [RH = 94%]
Pressure (altimeter): 29.97 inches Hg (1015.0 mb)
Winds: calm
Visibility: 0.93 miles (1.50 km)
Ceiling: at least 12,000 feet AGL
Clouds: sky clear below 12,000 feet AGL
Weather: BR  (mist)

METAR text: VEAT 181600Z 00000KT 1500 BR NSC 15/14 Q1015 NOSIG
Conditions at: VEAT (AGARTALA , IN) observed 1600 UTC 18 January 2019
Temperature: 15.0°C (59°F)
Dewpoint: 14.0°C (57°F) [RH = 94%]
Pressure (altimeter): 29.97 inches Hg (1015.0 mb)
Winds: calm
Visibility: 0.93 miles (1.50 km)
Ceiling: at least 12,000 feet AGL
Clouds: sky clear below 12,000 feet AGL
Weather: BR  (mist)

METAR text: VEAT 181530Z 00000KT 1500 BR NSC 16/14 Q1015 NOSIG
Conditions at: VEAT (AGARTALA , IN) observed 1530 UTC 18 January 2019
Temperature: 16.0°C (61°F)
Dewpoint: 14.0°C (57°F) [RH = 88%]
Pressure (altimeter): 29.97 inches Hg (1015.0 mb)
Winds: calm
Visibility: 0.93 miles (1.50 km)
Ceiling: at least 12,000 feet AGL
Clouds: sky clear below 12,000 feet AGL
Weather: BR  (mist)

METAR text: VEAT 181500Z 00000KT 1500 BR NSC 16/15 Q1014 NOSIG
Conditions at: VEAT (AGARTALA , IN) observed 1500 UTC 18 January 2019
Temperature: 16.0°C (61°F)
Dewpoint: 15.0°C (59°F) [RH = 94%]
Pressure (altimeter): 29.94 inches Hg (1014.0 mb)
Winds: calm
Visibility: 0.93 miles (1.50 km)
Ceiling: at least 12,000 feet AGL
Clouds: sky clear below 12,000 feet AGL
Weather: BR  (mist)

METAR text: VEAT 181430Z 00000KT 1800 BR NSC 17/15 Q1014 BECMG 1500 BR
Conditions at: VEAT (AGARTALA , IN) observed 1430 UTC 18 January 2019
Temperature: 17.0°C (63°F)
Dewpoint: 15.0°C (59°F) [RH = 88%]
Pressure (altimeter): 29.94 inches Hg (1014.0 mb)
Winds: calm
Visibility: 1.12 miles (1.80 km)
Ceiling: at least 12,000 feet AGL
Clouds: sky clear below 12,000 feet AGL
Weather: BR  (mist)

METAR text: VEAT 181400Z 00000KT 1800 BR NSC 17/15 Q1014 NOSIG
Conditions at: VEAT (AGARTALA , IN) observed 1400 UTC 18 January 2019
Temperature: 17.0°C (63°F)
Dewpoint: 15.0°C (59°F) [RH = 88%]
Pressure (altimeter): 29.94 inches Hg (1014.0 mb)
Winds: calm
Visibility: 1.12 miles (1.80 km)
Ceiling: at least 12,000 feet AGL
Clouds: sky clear below 12,000 feet AGL
Weather: BR  (mist)

METAR text: VEAT 181330Z 00000KT 1800 BR NSC 18/16 Q1013 NOSIG
Conditions at: VEAT (AGARTALA , IN) observed 1330 UTC 18 January 2019
Temperature: 18.0°C (64°F)
Dewpoint: 16.0°C (61°F) [RH = 88%]
Pressure (altimeter): 29.91 inches Hg (1013.0 mb)
Winds: calm
Visibility: 1.12 miles (1.80 km)
Ceiling: at least 12,000 feet AGL
Clouds: sky clear below 12,000 feet AGL
Weather: BR  (mist)

METAR text: VEAT 181300Z 00000KT 1800 BR NSC 19/16 Q1013 NOSIG
Conditions at: VEAT (AGARTALA , IN) observed 1300 UTC 18 January 2019
Temperature: 19.0°C (66°F)
Dewpoint: 16.0°C (61°F) [RH = 83%]
Pressure (altimeter): 29.91 inches Hg (1013.0 mb)
Winds: calm
Visibility: 1.12 miles (1.80 km)
Ceiling: at least 12,000 feet AGL
Clouds: sky clear below 12,000 feet AGL
Weather: BR  (mist)

METAR text: VEAT 181230Z 00000KT 1800 BR NSC 19/16 Q1013 NOSIG
Conditions at: VEAT (AGARTALA , IN) observed 1230 UTC 18 January 2019
Temperature: 19.0°C (66°F)
Dewpoint: 16.0°C (61°F) [RH = 83%]
Pressure (altimeter): 29.91 inches Hg (1013.0 mb)
Winds: calm
Visibility: 1.12 miles (1.80 km)
Ceiling: at least 12,000 feet AGL
Clouds: sky clear below 12,000 feet AGL
Weather: BR  (mist)

METAR text: VEAT 181200Z 00000KT 1800 BR NSC 20/17 Q1013 NOSIG
Conditions at: VEAT (AGARTALA , IN) observed 1200 UTC 18 January 2019
Temperature: 20.0°C (68°F)
Dewpoint: 17.0°C (63°F) [RH = 83%]
Pressure (altimeter): 29.91 inches Hg (1013.0 mb)
Winds: calm
Visibility: 1.12 miles (1.80 km)
Ceiling: at least 12,000 feet AGL
Clouds: sky clear below 12,000 feet AGL
Weather: BR  (mist)

METAR text: VEAT 181130Z 00000KT 1800 HZ NSC 23/18 Q1012 NOSIG
Conditions at: VEAT (AGARTALA , IN) observed 1130 UTC 18 January 2019
Temperature: 23.0°C (73°F)
Dewpoint: 18.0°C (64°F) [RH = 73%]
Pressure (altimeter): 29.88 inches Hg (1012.0 mb)
Winds: calm
Visibility: 1.12 miles (1.80 km)
Ceiling: at least 12,000 feet AGL
Clouds: sky clear below 12,000 feet AGL
Weather: HZ  (haze)

METAR text: VEAT 181100Z 00000KT 1800 HZ NSC 24/18 Q1012 NOSIG
Conditions at: VEAT (AGARTALA , IN) observed 1100 UTC 18 January 2019
Temperature: 24.0°C (75°F)
Dewpoint: 18.0°C (64°F) [RH = 69%]
Pressure (altimeter): 29.88 inches Hg (1012.0 mb)
Winds: calm
Visibility: 1.12 miles (1.80 km)
Ceiling: at least 12,000 feet AGL
Clouds: sky clear below 12,000 feet AGL
Weather: HZ  (haze)

METAR text: VEAT 181030Z 00000KT 2000 HZ NSC 25/17 Q1012 NOSIG
Conditions at: VEAT (AGARTALA , IN) observed 1030 UTC 18 January 2019
Temperature: 25.0°C (77°F)
Dewpoint: 17.0°C (63°F) [RH = 61%]
Pressure (altimeter): 29.88 inches Hg (1012.0 mb)
Winds: calm
Visibility: 1.24 miles (2.00 km)
Ceiling: at least 12,000 feet AGL
Clouds: sky clear below 12,000 feet AGL
Weather: HZ  (haze)

METAR text: VEAT 181000Z 00000KT 2000 HZ NSC 25/17 Q1012 NOSIG
Conditions at: VEAT (AGARTALA , IN) observed 1000 UTC 18 January 2019
Temperature: 25.0°C (77°F)
Dewpoint: 17.0°C (63°F) [RH = 61%]
Pressure (altimeter): 29.88 inches Hg (1012.0 mb)
Winds: calm
Visibility: 1.24 miles (2.00 km)
Ceiling: at least 12,000 feet AGL
Clouds: sky clear below 12,000 feet AGL
Weather: HZ  (haze)

METAR text: VEAT 180930Z 00000KT 2000 HZ NSC 26/14 Q1012 NOSIG
Conditions at: VEAT (AGARTALA , IN) observed 0930 UTC 18 January 2019
Temperature: 26.0°C (79°F)
Dewpoint: 14.0°C (57°F) [RH = 48%]
Pressure (altimeter): 29.88 inches Hg (1012.0 mb)
Winds: calm
Visibility: 1.24 miles (2.00 km)
Ceiling: at least 12,000 feet AGL
Clouds: sky clear below 12,000 feet AGL
Weather: HZ  (haze)

METAR text: VEAT 180900Z 00000KT 2000 HZ NSC 26/15 Q1012 NOSIG
Conditions at: VEAT (AGARTALA , IN) observed 0900 UTC 18 January 2019
Temperature: 26.0°C (79°F)
Dewpoint: 15.0°C (59°F) [RH = 51%]
Pressure (altimeter): 29.88 inches Hg (1012.0 mb)
Winds: calm
Visibility: 1.24 miles (2.00 km)
Ceiling: at least 12,000 feet AGL
Clouds: sky clear below 12,000 feet AGL
Weather: HZ  (haze)

METAR text: VEAT 180830Z 00000KT 2000 HZ NSC 26/14 Q1012 NOSIG
Conditions at: VEAT (AGARTALA , IN) observed 0830 UTC 18 January 2019
Temperature: 26.0°C (79°F)
Dewpoint: 14.0°C (57°F) [RH = 48%]
Pressure (altimeter): 29.88 inches Hg (1012.0 mb)
Winds: calm
Visibility: 1.24 miles (2.00 km)
Ceiling: at least 12,000 feet AGL
Clouds: sky clear below 12,000 feet AGL
Weather: HZ  (haze)

METAR text: VEAT 180800Z 00000KT 1800 HZ NSC 26/14 Q1013 NOSIG
Conditions at: VEAT (AGARTALA , IN) observed 0800 UTC 18 January 2019
Temperature: 26.0°C (79°F)
Dewpoint: 14.0°C (57°F) [RH = 48%]
Pressure (altimeter): 29.91 inches Hg (1013.0 mb)
Winds: calm
Visibility: 1.12 miles (1.80 km)
Ceiling: at least 12,000 feet AGL
Clouds: sky clear below 12,000 feet AGL
Weather: HZ  (haze)

METAR text: VEAT 180730Z 00000KT 1800 HZ NSC 26/15 Q1013 NOSIG
Conditions at: VEAT (AGARTALA , IN) observed 0730 UTC 18 January 2019
Temperature: 26.0°C (79°F)
Dewpoint: 15.0°C (59°F) [RH = 51%]
Pressure (altimeter): 29.91 inches Hg (1013.0 mb)
Winds: calm
Visibility: 1.12 miles (1.80 km)
Ceiling: at least 12,000 feet AGL
Clouds: sky clear below 12,000 feet AGL
Weather: HZ  (haze)

METAR text: VEAT 180700Z 30003KT 1800 HZ NSC 25/15 Q1014 NOSIG
Conditions at: VEAT (AGARTALA , IN) observed 0700 UTC 18 January 2019
Temperature: 25.0°C (77°F)
Dewpoint: 15.0°C (59°F) [RH = 54%]
Pressure (altimeter): 29.94 inches Hg (1014.0 mb)
Winds: from the WNW (300 degrees) at 3 MPH (3 knots; 1.5 m/s)
Visibility: 1.12 miles (1.80 km)
Ceiling: at least 12,000 feet AGL
Clouds: sky clear below 12,000 feet AGL
Weather: HZ  (haze)

METAR text: VEAT 180630Z 00000KT 1200 HZ NSC 24/15 Q1014 BECMG 1500 HZ
Conditions at: VEAT (AGARTALA , IN) observed 0630 UTC 18 January 2019
Temperature: 24.0°C (75°F)
Dewpoint: 15.0°C (59°F) [RH = 57%]
Pressure (altimeter): 29.94 inches Hg (1014.0 mb)
Winds: calm
Visibility: 0.75 miles (1.21 km)
Ceiling: at least 12,000 feet AGL
Clouds: sky clear below 12,000 feet AGL
Weather: HZ  (haze)

METAR text: VEAT 180600Z 00000KT 1200 HZ NSC 24/15 Q1015 NOSIG
Conditions at: VEAT (AGARTALA , IN) observed 0600 UTC 18 January 2019
Temperature: 24.0°C (75°F)
Dewpoint: 15.0°C (59°F) [RH = 57%]
Pressure (altimeter): 29.97 inches Hg (1015.0 mb)
Winds: calm
Visibility: 0.75 miles (1.21 km)
Ceiling: at least 12,000 feet AGL
Clouds: sky clear below 12,000 feet AGL
Weather: HZ  (haze)

METAR text: VEAT 180530Z 00000KT 1200 HZ NSC 24/14 Q1015 NOSIG
Conditions at: VEAT (AGARTALA , IN) observed 0530 UTC 18 January 2019
Temperature: 24.0°C (75°F)
Dewpoint: 14.0°C (57°F) [RH = 54%]
Pressure (altimeter): 29.97 inches Hg (1015.0 mb)
Winds: calm
Visibility: 0.75 miles (1.21 km)
Ceiling: at least 12,000 feet AGL
Clouds: sky clear below 12,000 feet AGL
Weather: HZ  (haze)

METAR text: VEAT 180500Z 00000KT 1200 HZ NSC 22/14 Q1016 BECMG 1500 HZ
Conditions at: VEAT (AGARTALA , IN) observed 0500 UTC 18 January 2019
Temperature: 22.0°C (72°F)
Dewpoint: 14.0°C (57°F) [RH = 60%]
Pressure (altimeter): 30.00 inches Hg (1016.0 mb)
Winds: calm
Visibility: 0.75 miles (1.21 km)
Ceiling: at least 12,000 feet AGL
Clouds: sky clear below 12,000 feet AGL
Weather: HZ  (haze)

METAR text: VEAT 180430Z 00000KT 1200 BR NSC 21/15 Q1016 NOSIG
Conditions at: VEAT (AGARTALA , IN) observed 0430 UTC 18 January 2019
Temperature: 21.0°C (70°F)
Dewpoint: 15.0°C (59°F) [RH = 69%]
Pressure (altimeter): 30.00 inches Hg (1016.0 mb)
Winds: calm
Visibility: 0.75 miles (1.21 km)
Ceiling: at least 12,000 feet AGL
Clouds: sky clear below 12,000 feet AGL
Weather: BR  (mist)

METAR text: VEAT 180400Z 00000KT 1200 BR NSC 19/15 Q1015 NOSIG
Conditions at: VEAT (AGARTALA , IN) observed 0400 UTC 18 January 2019
Temperature: 19.0°C (66°F)
Dewpoint: 15.0°C (59°F) [RH = 78%]
Pressure (altimeter): 29.97 inches Hg (1015.0 mb)
Winds: calm
Visibility: 0.75 miles (1.21 km)
Ceiling: at least 12,000 feet AGL
Clouds: sky clear below 12,000 feet AGL
Weather: BR  (mist)

METAR text: VEAT 180330Z 00000KT 1200 BR NSC 18/14 Q1015 NOSIG
Conditions at: VEAT (AGARTALA , IN) observed 0330 UTC 18 January 2019
Temperature: 18.0°C (64°F)
Dewpoint: 14.0°C (57°F) [RH = 77%]
Pressure (altimeter): 29.97 inches Hg (1015.0 mb)
Winds: calm
Visibility: 0.75 miles (1.21 km)
Ceiling: at least 12,000 feet AGL
Clouds: sky clear below 12,000 feet AGL
Weather: BR  (mist)

Forecast for: VEAT (AGARTALA , IN)
Text: TAF VEAT 191400Z 1915/1924 00000KT 2000 BR NSC
Forecast period: 1500 to 1800 UTC 19 January 2019
Forecast type: FROM: standard forecast or significant change
Winds: calm
Visibility: 1.24 miles (2.00 km)
Ceiling: unknown
Clouds: missing
Weather: BR  (mist)
Text: BECMG 1918/1920 1500 BR
Forecast period: 1800 to 2200 UTC 19 January 2019
Forecast type: BECOMING: Conditions expected to become as follows by 2000 UTC 19 January 2019
Winds: calm
Visibility: 0.93 miles (1.50 km)
Ceiling: unknown
Clouds: missing
Weather: BR  (mist)
Text: BECMG 1922/1924 0800 FG
Forecast period: 2200 UTC 19 January 2019 to 0000 UTC 20 January 2019
Forecast type: BECOMING: Conditions expected to become as follows by 0000 UTC 20 January 2019
Winds: calm
Visibility: 0.50 miles (0.80 km)
Ceiling: unknown
Clouds: missing
Weather: FG  (fog)